EW0693 Weather Reports


Display with metric or nautical units.
time (UTC)temp
F
wind
direction
speed
MPH
gust
MPH
rain 1hr
in
rain 24hr
in
rain mn
in
humidity
%
barometer
mb
20180920185458 63 347 0.0 4.0 0.01 0.07 0.07 97 1012.2
20180920184958 63 10 0.0 4.0 0.01 0.07 0.07 97 1012.2
20180920184459 63 13 0.0 2.0 0.01 0.07 0.07 97 1012.2
20180920183958 63 2 1.0 4.0 0.01 0.07 0.07 97 1012.4
20180920183458 63 353 1.0 5.0 0.01 0.07 0.07 97 1012.4
20180920182958 62 2 1.0 5.0 0.01 0.07 0.07 97 1012.3
20180920182458 62 24 1.0 5.0 0.01 0.07 0.07 98 1012.4
20180920181958 62 359 1.0 5.0 0.01 0.07 0.07 97 1012.7
20180920181458 62 340 1.0 5.0 0.01 0.07 0.07 97 1012.6
20180920180959 62 348 1.0 4.0 0.01 0.07 0.07 97 1012.7
20180920180458 62 340 0.0 4.0 0.01 0.07 0.07 97 1012.7
20180920175958 62 320 0.0 5.0 0.01 0.07 0.07 97 1013.4
20180920175458 62 319 1.0 5.0 0.00 0.06 0.06 97 1013.5
20180920174958 61 317 1.0 4.0 0.00 0.06 0.06 97 1013.6
20180920174501 61 315 0.0 4.0 0.00 0.06 0.06 97 1013.7
20180920173959 61 324 0.0 3.0 0.00 0.06 0.06 97 1013.7
20180920173458 61 333 0.0 1.0 0.00 0.06 0.06 97 1014.1
20180920172958 61 321 0.0 3.0 0.00 0.06 0.06 97 1013.9
20180920172458 61 326 0.0 3.0 0.00 0.06 0.06 97 1013.8
20180920171959 61 6 0.0 1.0 0.00 0.06 0.06 97 1013.6
20180920171458 61 4 0.0 3.0 0.01 0.06 0.06 97 1013.5
20180920170958 61 2 0.0 3.0 0.01 0.06 0.06 97 1013.6
20180920170458 61 24 0.0 2.0 0.01 0.06 0.06 97 1013.6
20180920165958 61 18 0.0 2.0 0.01 0.06 0.06 97 1013.4
20180920165459 61 7 0.0 2.0 0.01 0.06 0.06 97 1013.4
20180920164958 61 349 0.0 3.0 0.01 0.06 0.06 97 1013.7
20180920164458 60 346 0.0 3.0 0.01 0.06 0.06 97 1014.0
20180920163959 60 331 0.0 5.0 0.02 0.06 0.06 97 1014.1
20180920163459 60 332 0.0 5.0 0.02 0.06 0.06 97 1014.4
20180920162958 60 6 0.0 2.0 0.03 0.06 0.06 97 1014.3
20180920162458 60 11 0.0 2.0 0.03 0.06 0.06 97 1014.3
20180920161958 60 343 0.0 2.0 0.04 0.06 0.06 97 1014.4
20180920161458 60 323 0.0 3.0 0.03 0.05 0.05 97 1014.7
20180920160958 60 328 0.0 3.0 0.03 0.05 0.05 97 1014.8
20180920160459 60 325 0.0 2.0 0.03 0.05 0.05 97 1014.9
20180920155959 60 328 0.0 2.0 0.04 0.05 0.05 97 1015.0
20180920155458 60 333 0.0 2.0 0.04 0.05 0.05 97 1014.9
20180920155001 60 66 0.0 1.0 0.04 0.05 0.05 97 1015.1
20180920154458 60 48 0.0 1.0 0.03 0.04 0.04 97 1015.1
20180920153959 59 352 0.0 1.0 0.03 0.04 0.04 97 1015.2
20180920153459 59 12 0.0 1.0 0.03 0.04 0.04 97 1015.2
20180920152958 59 9 0.0 1.0 0.02 0.03 0.03 97 1015.2
20180920152458 59 0 0.0 0.0 0.02 0.03 0.03 97 1015.3
20180920151958 59 318 0.0 2.0 0.01 0.02 0.02 96 1015.4
20180920151459 59 310 0.0 2.0 0.01 0.02 0.02 96 1015.7
20180920150958 59 315 0.0 2.0 0.02 0.02 0.02 96 1015.6
20180920150458 59 1 0.0 1.0 0.02 0.02 0.02 96 1015.4
20180920145959 59 7 0.0 1.0 0.01 0.01 0.01 96 1015.5
20180920145459 59 34 0.0 1.0 0.01 0.01 0.01 96 1015.5
20180920144958 59 22 0.0 1.0 0.01 0.01 0.01 96 1015.4
20180920144458 59 353 0.0 1.0 0.01 0.01 0.01 96 1015.4
20180920143958 59 350 0.0 2.0 0.01 0.01 0.01 96 1015.3
20180920143459 59 349 0.0 2.0 0.01 0.01 0.01 96 1015.1
20180920142958 59 353 0.0 2.0 0.01 0.01 0.01 96 1015.1
20180920142458 59 350 0.0 2.0 0.01 0.01 0.01 96 1014.9
20180920141959 59 327 1.0 3.0 0.01 0.01 0.01 96 1014.9
20180920141459 59 338 1.0 3.0 0.01 0.01 0.01 95 1015.0
20180920140958 59 354 0.0 5.0 0.00 0.00 0.00 95 1014.9
20180920140458 59 341 0.0 5.0 0.00 0.00 0.00 96 1015.0
20180920135959 59 331 0.0 4.0 0.00 0.00 0.00 96 1015.0
20180920135459 59 336 0.0 3.0 0.00 0.00 0.00 96 1015.0
20180920134959 59 6 0.0 6.0 0.00 0.00 0.00 96 1014.9
20180920134500 59 6 0.0 6.0 0.00 0.00 0.00 96 1014.9
20180920133958 59 6 0.0 3.0 0.00 0.00 0.00 96 1014.9
20180920133459 59 20 0.0 3.0 0.00 0.00 0.00 96 1014.9
20180920132959 59 22 0.0 4.0 0.00 0.00 0.00 96 1014.8
20180920132458 59 351 0.0 4.0 0.00 0.00 0.00 96 1014.9
20180920131958 58 335 0.0 3.0 0.00 0.00 0.00 96 1014.9
20180920131500 58 18 0.0 1.0 0.00 0.00 0.00 96 1014.9
20180920130959 58 355 0.0 2.0 0.00 0.00 0.00 96 1014.9
20180920130459 58 354 0.0 2.0 0.00 0.00 0.00 96 1014.9
20180920125958 58 4 0.0 2.0 0.00 0.00 0.00 96 1014.8
20180920125458 58 25 0.0 2.0 0.00 0.00 0.00 96 1014.8
20180920124959 58 18 0.0 2.0 0.00 0.00 0.00 96 1014.9
20180920124459 58 1 0.0 3.0 0.00 0.00 0.00 96 1014.8
20180920123958 58 356 0.0 3.0 0.00 0.00 0.00 96 1014.9
20180920123458 58 318 0.0 2.0 0.00 0.00 0.00 97 1014.8
20180920122959 58 331 0.0 3.0 0.00 0.00 0.00 97 1014.9
20180920122459 58 331 0.0 3.0 0.00 0.00 0.00 97 1015.0
20180920121959 58 18 0.0 2.0 0.00 0.00 0.00 97 1015.0
20180920121458 58 352 0.0 2.0 0.00 0.00 0.00 97 1015.1
20180920120958 58 11 0.0 5.0 0.00 0.00 0.00 97 1015.0
20180920120459 58 45 0.0 5.0 0.00 0.00 0.00 97 1015.0
20180920115959 58 12 0.0 2.0 0.00 0.00 0.00 97 1015.0
20180920115459 58 359 0.0 2.0 0.00 0.00 0.00 97 1014.9
20180920115114 58 7 0.0 4.0 0.00 0.00 0.00 97 1014.9
20180920114519 58 22 0.0 4.0 0.00 0.00 0.00 97 1015.0
20180920113959 58 36 0.0 3.0 0.00 0.00 0.00 97 1014.9
20180920113459 58 34 0.0 3.0 0.00 0.00 0.00 97 1014.8
20180920112958 58 0 0.0 0.0 0.00 0.00 0.00 97 1014.8
20180920112458 58 0 0.0 0.0 0.00 0.00 0.00 97 1014.8
20180920111959 57 0 0.0 0.0 0.00 0.00 0.00 97 1014.9
20180920111459 57 0 0.0 0.0 0.00 0.00 0.00 97 1015.1
20180920110958 57 0 0.0 0.0 0.00 0.00 0.00 97 1015.0
20180920110459 57 0 0.0 0.0 0.00 0.00 0.00 97 1015.1
20180920105959 57 0 0.0 0.0 0.00 0.00 0.00 97 1015.1
20180920105459 57 0 0.0 0.0 0.00 0.00 0.00 97 1015.2
20180920104958 58 0 0.0 0.0 0.00 0.00 0.00 97 1015.3
20180920104458 58 0 0.0 0.0 0.00 0.00 0.00 97 1015.3
20180920103959 58 0 0.0 0.0 0.00 0.00 0.00 97 1015.2
20180920103459 58 0 0.0 0.0 0.00 0.00 0.00 97 1015.2
20180920102958 58 0 0.0 0.0 0.00 0.00 0.00 97 1015.3
20180920102458 58 0 0.0 0.0 0.00 0.00 0.00 97 1015.2
20180920101959 58 0 0.0 0.0 0.00 0.00 0.00 97 1015.2
20180920101501 58 0 0.0 0.0 0.00 0.00 0.00 97 1015.1
20180920100958 58 0 0.0 0.0 0.00 0.00 0.00 97 1015.0
20180920100459 57 0 0.0 0.0 0.00 0.00 0.00 97 1014.9
20180920095959 57 0 0.0 0.0 0.00 0.00 0.00 97 1015.0
20180920095459 58 0 0.0 0.0 0.00 0.00 0.00 97 1015.1
20180920094958 58 0 0.0 0.0 0.00 0.00 0.00 97 1015.1
20180920094459 57 0 0.0 0.0 0.00 0.00 0.00 97 1015.1
20180920093959 57 0 0.0 0.0 0.00 0.00 0.00 97 1015.1
20180920093459 57 0 0.0 0.0 0.00 0.00 0.00 97 1015.0
20180920092958 57 0 0.0 0.0 0.00 0.00 0.00 97 1015.0
20180920092501 57 0 0.0 0.0 0.00 0.00 0.00 97 1015.0
20180920092003 57 0 0.0 0.0 0.00 0.00 0.00 97 1014.9
20180920091501 57 0 0.0 0.0 0.00 0.00 0.00 97 1014.9
20180920090959 57 0 0.0 0.0 0.00 0.00 0.00 97 1015.0
20180920090459 57 0 0.0 0.0 0.00 0.00 0.00 97 1015.0
20180920085959 57 0 0.0 0.0 0.00 0.00 0.00 97 1015.0
20180920085459 57 0 0.0 0.0 0.00 0.00 0.00 97 1015.0
20180920084958 57 0 0.0 0.0 0.00 0.00 0.00 97 1015.1
20180920083959 57 0 0.0 0.0 0.00 0.00 0.00 97 1015.1
20180920083459 57 0 0.0 0.0 0.00 0.00 0.00 97 1015.1
20180920082958 57 0 0.0 0.0 0.00 0.00 0.00 97 1015.2
20180920082459 57 0 0.0 0.0 0.00 0.00 0.00 97 1015.2
20180920081959 57 0 0.0 0.0 0.00 0.00 0.00 97 1015.3
20180920081459 57 0 0.0 0.0 0.00 0.00 0.00 97 1015.2
20180920080959 57 0 0.0 0.0 0.00 0.00 0.00 97 1015.3
20180920080459 57 0 0.0 0.0 0.00 0.00 0.00 97 1015.4
20180920075959 57 0 0.0 0.0 0.00 0.00 0.00 97 1015.2
20180920075459 57 0 0.0 0.0 0.00 0.00 0.00 97 1015.2
20180920074959 57 0 0.0 0.0 0.00 0.00 0.00 97 1015.3
20180920074458 57 0 0.0 0.0 0.00 0.00 0.00 97 1015.4
20180920073959 57 0 0.0 0.0 0.00 0.00 0.00 97 1015.4
20180920073459 57 0 0.0 0.0 0.00 0.00 0.00 97 1015.3
20180920072959 57 0 0.0 0.0 0.00 0.00 0.00 97 1015.3
20180920072458 57 0 0.0 0.0 0.00 0.00 0.00 97 1015.2
20180920071959 57 0 0.0 0.0 0.00 0.00 0.00 97 1015.4
20180920071459 57 0 0.0 0.0 0.00 0.00 0.00 97 1015.4
20180920070959 57 0 0.0 0.0 0.00 0.00 0.00 97 1015.5
20180920070458 57 0 0.0 0.0 0.00 0.00 0.00 97 1015.6
20180920065959 57 0 0.0 0.0 0.00 0.00 0.00 97 1015.7
20180920065459 57 0 0.0 0.0 0.00 0.00 0.00 97 1015.7
20180920064959 57 0 0.0 0.0 0.00 0.00 0.00 97 1015.7
20180920064459 57 0 0.0 0.0 0.00 0.00 0.00 97 1015.8
20180920063959 57 0 0.0 0.0 0.00 0.00 0.00 97 1015.8
20180920063459 57 0 0.0 0.0 0.00 0.00 0.00 97 1015.8
20180920062959 57 0 0.0 0.0 0.00 0.00 0.00 97 1015.8
20180920062458 57 0 0.0 0.0 0.00 0.00 0.00 97 1015.8
20180920061959 57 0 0.0 0.0 0.00 0.00 0.00 97 1015.7
20180920061459 57 0 0.0 0.0 0.00 0.00 0.00 97 1015.7
20180920060959 57 0 0.0 0.0 0.00 0.00 0.00 97 1015.7
20180920060459 57 0 0.0 0.0 0.00 0.00 0.00 97 1015.6
20180920055959 57 0 0.0 0.0 0.00 0.00 0.00 97 1015.5
20180920055459 57 0 0.0 0.0 0.00 0.00 0.00 97 1015.4
20180920054959 57 0 0.0 0.0 0.00 0.00 0.00 97 1015.3
20180920054459 57 0 0.0 0.0 0.00 0.00 0.00 97 1015.2
20180920053959 57 0 0.0 0.0 0.00 0.00 0.00 97 1015.1
20180920053459 57 0 0.0 0.0 0.00 0.00 0.00 97 1015.2
20180920052959 57 0 0.0 0.0 0.00 0.00 0.00 97 1015.1
20180920052459 57 0 0.0 0.0 0.00 0.00 0.00 97 1015.2
20180920051959 57 0 0.0 0.0 0.00 0.00 0.00 97 1015.3
20180920051500 57 0 0.0 0.0 0.00 0.00 0.00 97 1015.3
20180920050959 57 0 0.0 0.0 0.00 0.00 0.00 96 1015.4
20180920050459 57 0 0.0 0.0 0.00 0.00 0.00 96 1015.5
20180920045959 57 0 0.0 0.0 0.00 0.00 0.00 96 1015.5
20180920045459 57 0 0.0 0.0 0.00 0.00 0.00 96 1015.5
20180920044959 57 0 0.0 0.0 0.00 0.00 0.00 96 1015.6
20180920044459 57 0 0.0 0.0 0.00 0.00 0.00 96 1015.6
20180920043959 57 0 0.0 0.0 0.00 0.00 0.00 96 1015.7
20180920043459 57 0 0.0 0.0 0.00 0.00 0.00 96 1015.7
20180920043000 57 0 0.0 0.0 0.00 0.00 0.00 96 1015.8
20180920042459 57 0 0.0 0.0 0.00 0.00 0.00 96 1015.9
20180920041959 57 0 0.0 0.0 0.00 0.00 0.00 96 1015.9
20180920041459 57 0 0.0 0.0 0.00 0.00 0.00 96 1015.9
20180920040959 57 0 0.0 0.0 0.00 0.00 0.00 96 1015.8
20180920040459 57 0 0.0 0.0 0.00 0.00 0.00 96 1015.9
20180920040000 57 0 0.0 0.0 0.00 0.00 0.00 95 1015.8
20180920035459 57 0 0.0 0.0 0.00 0.00 0.00 95 1015.8
20180920034959 57 0 0.0 0.0 0.00 0.00 0.00 95 1015.8
20180920034459 57 0 0.0 0.0 0.00 0.00 0.00 95 1015.7
20180920033959 57 0 0.0 0.0 0.00 0.00 0.00 95 1015.7
20180920033459 57 0 0.0 0.0 0.00 0.00 0.00 95 1015.6
20180920032959 57 0 0.0 0.0 0.00 0.00 0.00 95 1015.5
20180920032459 57 0 0.0 0.0 0.00 0.00 0.00 94 1015.7
20180920031959 57 0 0.0 0.0 0.00 0.00 0.00 95 1015.7
20180920031500 57 0 0.0 0.0 0.00 0.00 0.00 94 1015.7
20180920030959 58 0 0.0 0.0 0.00 0.00 0.00 94 1015.7
20180920030459 58 328 0.0 1.0 0.00 0.00 0.00 94 1015.7
20180920025959 57 325 0.0 1.0 0.00 0.00 0.00 94 1015.7
20180920025459 58 323 0.0 1.0 0.00 0.00 0.00 94 1015.7
20180920024959 58 324 0.0 1.0 0.00 0.00 0.00 94 1015.6
20180920024459 58 332 0.0 1.0 0.00 0.00 0.00 94 1015.7
20180920024000 58 342 0.0 1.0 0.00 0.00 0.00 94 1015.8
20180920023459 58 0 0.0 0.0 0.00 0.00 0.00 94 1015.9
20180920022959 58 0 0.0 0.0 0.00 0.00 0.00 94 1015.8
20180920022459 58 323 0.0 1.0 0.00 0.00 0.00 94 1015.8
20180920021959 58 326 0.0 1.0 0.00 0.00 0.00 94 1015.8
20180920021459 58 324 0.0 1.0 0.00 0.00 0.00 94 1015.6
20180920021000 58 323 0.0 1.0 0.00 0.00 0.00 94 1015.9
20180920020459 58 319 0.0 1.0 0.00 0.00 0.00 94 1015.8
20180920015959 58 319 0.0 1.0 0.00 0.00 0.00 94 1015.7
20180920015459 58 350 0.0 1.0 0.00 0.00 0.00 94 1015.6
20180920014959 58 339 0.0 1.0 0.00 0.00 0.00 94 1015.7
20180920014459 58 337 0.0 1.0 0.00 0.00 0.00 94 1015.7
20180920013959 58 341 0.0 1.0 0.00 0.00 0.00 94 1015.7
20180920013459 58 346 0.0 1.0 0.00 0.00 0.00 94 1015.5
20180920012959 58 347 0.0 1.0 0.00 0.00 0.00 94 1015.5
20180920012459 58 330 0.0 1.0 0.00 0.00 0.00 94 1015.6
20180920011959 58 331 0.0 1.0 0.00 0.00 0.00 94 1015.7
20180920011459 58 323 0.0 1.0 0.00 0.00 0.00 94 1015.7
20180920010959 58 319 0.0 1.0 0.00 0.00 0.00 94 1015.6
20180920010459 58 326 0.0 1.0 0.00 0.00 0.00 94 1015.5
20180920010000 58 326 0.0 1.0 0.00 0.00 0.00 93 1015.5
20180920005459 58 341 0.0 1.0 0.00 0.00 0.00 93 1015.4
20180920004959 58 341 0.0 1.0 0.00 0.00 0.00 93 1015.4
20180920004459 58 0 0.0 0.0 0.00 0.00 0.00 93 1015.4
20180920004000 58 322 0.0 2.0 0.00 0.00 0.00 92 1015.5
20180920003459 58 328 0.0 2.0 0.00 0.00 0.00 92 1015.5
20180920002959 59 333 0.0 2.0 0.00 0.00 0.00 92 1015.5
20180920002459 59 332 0.0 1.0 0.00 0.00 0.00 91 1015.6
20180920001959 59 21 0.0 1.0 0.00 0.00 0.00 90 1015.6
20180920001500 60 21 0.0 1.0 0.00 0.00 0.00 89 1015.5
20180920000959 60 46 0.0 1.0 0.00 0.00 0.00 89 1015.6
20180920000459 60 96 0.0 1.0 0.00 0.00 0.00 88 1015.6
20180919235959 61 96 0.0 2.0 0.00 0.00 0.00 87 1015.6
20180919235459 61 119 1.0 5.0 0.00 0.00 0.00 86 1015.6
20180919235000 61 125 2.0 5.0 0.00 0.00 0.00 86 1015.5
20180919234459 61 115 2.0 4.0 0.00 0.00 0.00 85 1015.4
20180919233959 61 113 4.0 8.0 0.00 0.00 0.00 84 1015.3
20180919233459 61 116 5.0 8.0 0.00 0.00 0.00 85 1015.2
20180919233000 61 113 5.0 9.0 0.00 0.00 0.00 87 1015.1
20180919232500 61 111 6.0 9.0 0.00 0.00 0.00 87 1015.0
20180919231959 61 109 5.0 8.0 0.00 0.00 0.00 86 1014.8
20180919231459 61 102 2.0 7.0 0.00 0.00 0.00 87 1014.5
20180919230959 61 102 3.0 7.0 0.00 0.00 0.00 86 1014.5
20180919230459 61 103 3.0 7.0 0.00 0.00 0.00 86 1014.5
20180919230000 61 104 3.0 6.0 0.00 0.00 0.00 87 1014.5
20180919225459 60 103 2.0 6.0 0.00 0.00 0.00 87 1014.5
20180919224959 60 101 2.0 6.0 0.00 0.00 0.00 87 1014.3
20180919224459 60 100 1.0 6.0 0.00 0.00 0.00 87 1014.3
20180919224000 60 96 0.0 6.0 0.00 0.00 0.00 86 1013.7
20180919223500 60 64 0.0 4.0 0.00 0.00 0.00 86 1013.6
20180919222959 60 67 0.0 4.0 0.00 0.00 0.00 86 1013.7
20180919222459 60 92 1.0 5.0 0.00 0.00 0.00 86 1013.9
20180919221959 60 101 3.0 6.0 0.00 0.00 0.00 86 1014.0
20180919221500 60 106 4.0 7.0 0.00 0.00 0.00 88 1014.3
20180919220959 60 110 3.0 7.0 0.00 0.00 0.00 86 1014.5
20180919220459 60 123 3.0 5.0 0.00 0.00 0.00 86 1014.8
20180919215959 60 133 2.0 5.0 0.00 0.00 0.00 86 1015.0
20180919215500 60 142 1.0 3.0 0.00 0.00 0.00 86 1015.1
20180919214959 60 159 0.0 1.0 0.00 0.00 0.00 87 1015.3
20180919214459 60 134 0.0 1.0 0.00 0.00 0.00 86 1015.1
20180919213959 60 127 0.0 1.0 0.00 0.00 0.00 85 1015.3
20180919213500 60 140 0.0 3.0 0.00 0.00 0.00 85 1015.2
20180919212959 60 136 0.0 3.0 0.00 0.00 0.00 86 1015.3
20180919212459 60 112 1.0 3.0 0.00 0.00 0.00 85 1015.4
20180919211959 60 122 1.0 3.0 0.00 0.00 0.00 85 1015.3
20180919211500 60 151 2.0 5.0 0.00 0.00 0.00 85 1015.5
20180919210959 60 176 2.0 5.0 0.00 0.00 0.00 86 1015.7
20180919210459 60 173 2.0 4.0 0.00 0.00 0.00 85 1015.9
20180919210000 60 168 3.0 6.0 0.00 0.00 0.00 86 1015.7
20180919205500 60 168 3.0 6.0 0.00 0.00 0.00 85 1015.7
20180919205000 60 158 3.0 6.0 0.00 0.00 0.00 86 1015.7
20180919204500 60 147 4.0 6.0 0.00 0.00 0.00 85 1015.7
20180919204000 60 147 3.0 6.0 0.00 0.00 0.00 85 1015.7
20180919203459 60 149 2.0 6.0 0.00 0.00 0.00 85 1015.9
20180919202959 60 140 3.0 6.0 0.00 0.00 0.00 84 1015.9
20180919202459 60 136 2.0 6.0 0.00 0.00 0.00 84 1015.9
20180919202000 60 129 2.0 3.0 0.00 0.00 0.00 85 1016.0
20180919201459 60 125 2.0 5.0 0.00 0.00 0.00 84 1016.0
20180919200959 60 122 2.0 5.0 0.00 0.00 0.00 84 1016.0
20180919200500 60 118 2.0 4.0 0.00 0.00 0.00 83 1016.1
20180919200000 60 118 2.0 4.0 0.00 0.00 0.00 83 1016.2
20180919195500 60 112 2.0 4.0 0.00 0.00 0.00 83 1016.3
20180919194959 60 100 1.0 4.0 0.00 0.00 0.00 83 1016.2
20180919194459 60 113 1.0 4.0 0.00 0.00 0.00 83 1016.2
20180919194000 60 123 2.0 4.0 0.00 0.00 0.00 83 1016.5
20180919193500 60 120 2.0 4.0 0.00 0.00 0.00 83 1016.7
20180919193000 60 109 2.0 6.0 0.00 0.00 0.00 82 1016.7
20180919192459 61 102 1.0 6.0 0.00 0.00 0.00 81 1016.5
20180919192000 61 101 0.0 2.0 0.00 0.00 0.00 82 1016.5
20180919191459 60 102 0.0 2.0 0.00 0.00 0.00 82 1016.5
20180919191000 60 34 0.0 1.0 0.00 0.00 0.00 82 1016.6
20180919190500 60 55 0.0 1.0 0.00 0.00 0.00 82 1016.5
20180919185959 60 95 0.0 1.0 0.00 0.00 0.00 82 1016.5